sensor_id;sensor_type;location;lat;lon;timestamp;pressure;altitude;pressure_sealevel;temperature;humidity
9460;BME280;4768;42.664;23.240;2023-04-26T00:00:48;-9621.56;;;7.42;100.00
9460;BME280;4768;42.664;23.240;2023-04-26T00:03:16;-9620.56;;;7.38;100.00
9460;BME280;4768;42.664;23.240;2023-04-26T00:05:43;-9614.03;;;7.16;100.00
9460;BME280;4768;42.664;23.240;2023-04-26T00:08:09;-9613.91;;;7.15;100.00
9460;BME280;4768;42.664;23.240;2023-04-26T00:10:37;-9615.75;;;7.21;100.00
9460;BME280;4768;42.664;23.240;2023-04-26T00:13:05;-9618.44;;;7.31;100.00
9460;BME280;4768;42.664;23.240;2023-04-26T00:15:32;-9621.69;;;7.42;100.00
9460;BME280;4768;42.664;23.240;2023-04-26T00:17:59;-9624.66;;;7.53;100.00
9460;BME280;4768;42.664;23.240;2023-04-26T00:20:27;-9623.25;;;7.48;100.00
9460;BME280;4768;42.664;23.240;2023-04-26T00:22:54;-9622.13;;;7.44;100.00
9460;BME280;4768;42.664;23.240;2023-04-26T00:25:21;-9621.97;;;7.43;100.00
9460;BME280;4768;42.664;23.240;2023-04-26T00:27:47;-9620.69;;;7.39;100.00
9460;BME280;4768;42.664;23.240;2023-04-26T00:30:14;-9622.25;;;7.44;100.00
9460;BME280;4768;42.664;23.240;2023-04-26T00:32:41;-9623.69;;;7.49;100.00
9460;BME280;4768;42.664;23.240;2023-04-26T00:35:08;-9622.41;;;7.45;100.00
9460;BME280;4768;42.664;23.240;2023-04-26T00:37:37;-9620.00;;;7.36;100.00
9460;BME280;4768;42.664;23.240;2023-04-26T00:40:04;-9618.88;;;7.32;100.00
9460;BME280;4768;42.664;23.240;2023-04-26T00:42:31;-9619.00;;;7.33;100.00
9460;BME280;4768;42.664;23.240;2023-04-26T00:44:58;-9623.81;;;7.50;100.00
9460;BME280;4768;42.664;23.240;2023-04-26T00:47:25;-9623.97;;;7.50;100.00
9460;BME280;4768;42.664;23.240;2023-04-26T00:49:54;-9624.53;;;7.52;100.00
9460;BME280;4768;42.664;23.240;2023-04-26T00:52:21;-9622.97;;;7.47;100.00
9460;BME280;4768;42.664;23.240;2023-04-26T00:54:52;-9620.28;;;7.37;100.00
9460;BME280;4768;42.664;23.240;2023-04-26T00:57:19;-9620.84;;;7.39;100.00
9460;BME280;4768;42.664;23.240;2023-04-26T00:59:47;-9620.69;;;7.39;100.00
9460;BME280;4768;42.664;23.240;2023-04-26T01:02:13;-9619.44;;;7.34;100.00
9460;BME280;4768;42.664;23.240;2023-04-26T01:04:41;-9620.56;;;7.38;100.00
9460;BME280;4768;42.664;23.240;2023-04-26T01:07:09;-9620.56;;;7.38;100.00
9460;BME280;4768;42.664;23.240;2023-04-26T01:09:37;-9620.13;;;7.37;100.00
9460;BME280;4768;42.664;23.240;2023-04-26T01:12:06;-9622.69;;;7.46;100.00
9460;BME280;4768;42.664;23.240;2023-04-26T01:14:34;-9622.25;;;7.44;100.00
9460;BME280;4768;42.664;23.240;2023-04-26T01:17:02;-9618.28;;;7.30;100.00
9460;BME280;4768;42.664;23.240;2023-04-26T01:19:29;-9617.16;;;7.26;100.00
9460;BME280;4768;42.664;23.240;2023-04-26T01:21:56;-9615.75;;;7.21;100.00
9460;BME280;4768;42.664;23.240;2023-04-26T01:24:25;-9613.75;;;7.15;100.00
9460;BME280;4768;42.664;23.240;2023-04-26T01:26:51;-9614.19;;;7.16;100.00
9460;BME280;4768;42.664;23.240;2023-04-26T01:29:19;-9616.59;;;7.24;100.00
9460;BME280;4768;42.664;23.240;2023-04-26T01:31:47;-9618.72;;;7.32;100.00
9460;BME280;4768;42.664;23.240;2023-04-26T01:34:14;-9618.88;;;7.32;100.00
9460;BME280;4768;42.664;23.240;2023-04-26T01:36:41;-9618.00;;;7.29;100.00
9460;BME280;4768;42.664;23.240;2023-04-26T01:39:08;-9616.75;;;7.25;100.00
9460;BME280;4768;42.664;23.240;2023-04-26T01:41:36;-9619.44;;;7.34;100.00
9460;BME280;4768;42.664;23.240;2023-04-26T01:44:03;-9620.13;;;7.37;100.00
9460;BME280;4768;42.664;23.240;2023-04-26T01:46:30;-9622.97;;;7.47;100.00
9460;BME280;4768;42.664;23.240;2023-04-26T01:48:57;-9623.13;;;7.47;100.00
9460;BME280;4768;42.664;23.240;2023-04-26T01:51:23;-9621.69;;;7.42;100.00
9460;BME280;4768;42.664;23.240;2023-04-26T01:53:50;-9621.13;;;7.40;100.00
9460;BME280;4768;42.664;23.240;2023-04-26T01:56:17;-9620.13;;;7.37;100.00
9460;BME280;4768;42.664;23.240;2023-04-26T01:58:46;-9620.56;;;7.38;100.00
9460;BME280;4768;42.664;23.240;2023-04-26T02:01:12;-9620.84;;;7.39;100.00
9460;BME280;4768;42.664;23.240;2023-04-26T02:03:39;-9618.88;;;7.32;100.00
9460;BME280;4768;42.664;23.240;2023-04-26T02:06:06;-9618.16;;;7.30;100.00
9460;BME280;4768;42.664;23.240;2023-04-26T02:08:33;-9619.00;;;7.33;100.00
9460;BME280;4768;42.664;23.240;2023-04-26T02:11:00;-9620.00;;;7.36;100.00
9460;BME280;4768;42.664;23.240;2023-04-26T02:13:27;-9620.69;;;7.39;100.00
9460;BME280;4768;42.664;23.240;2023-04-26T02:15:55;-9618.28;;;7.30;100.00
9460;BME280;4768;42.664;23.240;2023-04-26T02:18:22;-9619.28;;;7.34;100.00
9460;BME280;4768;42.664;23.240;2023-04-26T02:20:48;-9619.16;;;7.33;100.00
9460;BME280;4768;42.664;23.240;2023-04-26T02:23:16;-9621.00;;;7.40;100.00
9460;BME280;4768;42.664;23.240;2023-04-26T02:25:45;-9621.00;;;7.40;100.00
9460;BME280;4768;42.664;23.240;2023-04-26T02:28:12;-9623.25;;;7.48;100.00
9460;BME280;4768;42.664;23.240;2023-04-26T02:30:40;-9624.25;;;7.51;100.00
9460;BME280;4768;42.664;23.240;2023-04-26T02:33:09;-9624.25;;;7.51;100.00
9460;BME280;4768;42.664;23.240;2023-04-26T02:35:36;-9623.69;;;7.49;100.00
9460;BME280;4768;42.664;23.240;2023-04-26T02:38:03;-9625.66;;;7.56;100.00
9460;BME280;4768;42.664;23.240;2023-04-26T02:40:29;-9625.81;;;7.57;100.00
9460;BME280;4768;42.664;23.240;2023-04-26T02:42:56;-9623.81;;;7.50;100.00
9460;BME280;4768;42.664;23.240;2023-04-26T02:45:23;-9623.53;;;7.49;100.00
9460;BME280;4768;42.664;23.240;2023-04-26T02:47:49;-9626.22;;;7.58;100.00
9460;BME280;4768;42.664;23.240;2023-04-26T02:50:18;-9626.22;;;7.58;100.00
9460;BME280;4768;42.664;23.240;2023-04-26T02:52:44;-9626.09;;;7.58;100.00
9460;BME280;4768;42.664;23.240;2023-04-26T02:55:11;-9626.50;;;7.59;100.00
9460;BME280;4768;42.664;23.240;2023-04-26T02:57:38;-9626.50;;;7.59;100.00
9460;BME280;4768;42.664;23.240;2023-04-26T03:00:06;-9626.78;;;7.60;100.00
9460;BME280;4768;42.664;23.240;2023-04-26T03:02:33;-9626.22;;;7.58;100.00
9460;BME280;4768;42.664;23.240;2023-04-26T03:05:00;-9626.09;;;7.58;100.00
9460;BME280;4768;42.664;23.240;2023-04-26T03:07:28;-9625.81;;;7.57;100.00
9460;BME280;4768;42.664;23.240;2023-04-26T03:09:55;-9622.53;;;7.45;100.00
9460;BME280;4768;42.664;23.240;2023-04-26T03:12:22;-9622.13;;;7.44;100.00
9460;BME280;4768;42.664;23.240;2023-04-26T03:14:49;-9616.75;;;7.25;100.00
9460;BME280;4768;42.664;23.240;2023-04-26T03:17:15;-9611.50;;;7.07;100.00
9460;BME280;4768;42.664;23.240;2023-04-26T03:19:42;-9609.94;;;7.01;100.00
9460;BME280;4768;42.664;23.240;2023-04-26T03:22:09;-9610.94;;;7.05;100.00
9460;BME280;4768;42.664;23.240;2023-04-26T03:24:41;-9610.66;;;7.04;100.00
9460;BME280;4768;42.664;23.240;2023-04-26T03:27:08;-9610.09;;;7.02;100.00
9460;BME280;4768;42.664;23.240;2023-04-26T03:29:35;-9607.69;;;6.93;100.00
9460;BME280;4768;42.664;23.240;2023-04-26T03:32:02;-9606.97;;;6.91;100.00
9460;BME280;4768;42.664;23.240;2023-04-26T03:34:28;-9606.53;;;6.89;100.00
9460;BME280;4768;42.664;23.240;2023-04-26T03:36:55;-9605.69;;;6.86;100.00
9460;BME280;4768;42.664;23.240;2023-04-26T03:39:22;-9605.69;;;6.86;100.00
9460;BME280;4768;42.664;23.240;2023-04-26T03:41:50;-9605.69;;;6.86;100.00
9460;BME280;4768;42.664;23.240;2023-04-26T03:44:16;-9604.84;;;6.83;100.00
9460;BME280;4768;42.664;23.240;2023-04-26T03:46:43;-9605.00;;;6.84;100.00
9460;BME280;4768;42.664;23.240;2023-04-26T03:49:10;-9603.16;;;6.77;100.00
9460;BME280;4768;42.664;23.240;2023-04-26T03:51:37;-9602.00;;;6.73;100.00
9460;BME280;4768;42.664;23.240;2023-04-26T03:54:04;-9602.72;;;6.76;100.00
9460;BME280;4768;42.664;23.240;2023-04-26T03:56:30;-9603.44;;;6.78;100.00
9460;BME280;4768;42.664;23.240;2023-04-26T03:58:59;-9604.28;;;6.81;100.00
9460;BME280;4768;42.664;23.240;2023-04-26T04:01:25;-9605.84;;;6.87;100.00
9460;BME280;4768;42.664;23.240;2023-04-26T04:03:52;-9608.53;;;6.96;100.00
9460;BME280;4768;42.664;23.240;2023-04-26T04:06:19;-9609.81;;;7.01;100.00
9460;BME280;4768;42.664;23.240;2023-04-26T04:08:46;-9609.53;;;7.00;100.00
9460;BME280;4768;42.664;23.240;2023-04-26T04:11:12;-9612.06;;;7.09;100.00
9460;BME280;4768;42.664;23.240;2023-04-26T04:13:39;-9614.34;;;7.17;100.00
9460;BME280;4768;42.664;23.240;2023-04-26T04:16:07;-9612.78;;;7.11;100.00
9460;BME280;4768;42.664;23.240;2023-04-26T04:18:34;-9612.91;;;7.12;100.00
9460;BME280;4768;42.664;23.240;2023-04-26T04:21:01;-9613.91;;;7.15;100.00
9460;BME280;4768;42.664;23.240;2023-04-26T04:23:28;-9616.03;;;7.22;100.00
9460;BME280;4768;42.664;23.240;2023-04-26T04:25:55;-9618.44;;;7.31;100.00
9460;BME280;4768;42.664;23.240;2023-04-26T04:28:22;-9621.56;;;7.42;100.00
9460;BME280;4768;42.664;23.240;2023-04-26T04:30:48;-9618.56;;;7.31;100.00
9460;BME280;4768;42.664;23.240;2023-04-26T04:33:17;-9617.31;;;7.27;100.00
9460;BME280;4768;42.664;23.240;2023-04-26T04:35:44;-9621.00;;;7.40;100.00
9460;BME280;4768;42.664;23.240;2023-04-26T04:38:11;-9628.50;;;7.66;100.00
9460;BME280;4768;42.664;23.240;2023-04-26T04:40:38;-9629.63;;;7.70;100.00
9460;BME280;4768;42.664;23.240;2023-04-26T04:43:05;-9629.06;;;7.68;100.00
9460;BME280;4768;42.664;23.240;2023-04-26T04:45:32;-9638.13;;;8.00;100.00
9460;BME280;4768;42.664;23.240;2023-04-26T04:47:59;-9642.38;;;8.15;100.00
9460;BME280;4768;42.664;23.240;2023-04-26T04:50:30;-9641.25;;;8.11;100.00
9460;BME280;4768;42.664;23.240;2023-04-26T04:52:57;-9639.97;;;8.06;100.00
9460;BME280;4768;42.664;23.240;2023-04-26T04:55:24;-9644.50;;;8.22;100.00
9460;BME280;4768;42.664;23.240;2023-04-26T04:57:51;-9645.78;;;8.26;100.00
9460;BME280;4768;42.664;23.240;2023-04-26T05:00:18;-9649.75;;;8.40;100.00
9460;BME280;4768;42.664;23.240;2023-04-26T05:02:45;-9645.06;;;8.24;100.00
9460;BME280;4768;42.664;23.240;2023-04-26T05:05:12;-9639.25;;;8.04;100.00
9460;BME280;4768;42.664;23.240;2023-04-26T05:07:40;-9642.25;;;8.14;100.00
9460;BME280;4768;42.664;23.240;2023-04-26T05:10:07;-9648.91;;;8.37;100.00
9460;BME280;4768;42.664;23.240;2023-04-26T05:12:34;-9652.16;;;8.49;100.00
9460;BME280;4768;42.664;23.240;2023-04-26T05:15:01;-9659.81;;;8.75;100.00
9460;BME280;4768;42.664;23.240;2023-04-26T05:17:28;-9663.63;;;8.89;100.00
9460;BME280;4768;42.664;23.240;2023-04-26T05:19:56;-9671.44;;;9.16;100.00
9460;BME280;4768;42.664;23.240;2023-04-26T05:22:23;-9675.97;;;9.32;100.00
9460;BME280;4768;42.664;23.240;2023-04-26T05:24:51;-9680.50;;;9.48;100.00
9460;BME280;4768;42.664;23.240;2023-04-26T05:27:18;-9688.88;;;9.77;100.00
9460;BME280;4768;42.664;23.240;2023-04-26T05:29:45;-9695.84;;;10.01;100.00
9460;BME280;4768;42.664;23.240;2023-04-26T05:32:11;-9701.22;;;10.20;100.00
9460;BME280;4768;42.664;23.240;2023-04-26T05:34:38;-9698.81;;;10.12;100.00
9460;BME280;4768;42.664;23.240;2023-04-26T05:37:05;-9702.09;;;10.23;100.00
9460;BME280;4768;42.664;23.240;2023-04-26T05:39:32;-9703.78;;;10.29;100.00
9460;BME280;4768;42.664;23.240;2023-04-26T05:42:00;-9709.03;;;10.47;100.00
9460;BME280;4768;42.664;23.240;2023-04-26T05:44:27;-9710.47;;;10.52;100.00
9460;BME280;4768;42.664;23.240;2023-04-26T05:46:54;-9710.16;;;10.51;100.00
9460;BME280;4768;42.664;23.240;2023-04-26T05:49:21;-9713.28;;;10.62;100.00
9460;BME280;4768;42.664;23.240;2023-04-26T05:51:47;-9715.13;;;10.68;100.00
9460;BME280;4768;42.664;23.240;2023-04-26T05:54:14;-9707.91;;;10.43;100.00
9460;BME280;4768;42.664;23.240;2023-04-26T05:56:41;-9705.50;;;10.35;100.00
9460;BME280;4768;42.664;23.240;2023-04-26T05:59:09;-9701.22;;;10.20;100.00
9460;BME280;4768;42.664;23.240;2023-04-26T06:01:36;-9705.91;;;10.36;100.00
9460;BME280;4768;42.664;23.240;2023-04-26T06:04:03;-9709.31;;;10.48;100.00
9460;BME280;4768;42.664;23.240;2023-04-26T06:06:30;-9719.69;;;10.84;100.00
9460;BME280;4768;42.664;23.240;2023-04-26T06:08:57;-9716.13;;;10.72;100.00
9460;BME280;4768;42.664;23.240;2023-04-26T06:11:24;-9723.22;;;10.97;100.00
9460;BME280;4768;42.664;23.240;2023-04-26T06:13:51;-9735.00;;;11.38;100.00
9460;BME280;4768;42.664;23.240;2023-04-26T06:16:21;-9721.38;;;10.90;100.00
9460;BME280;4768;42.664;23.240;2023-04-26T06:18:48;-9700.53;;;10.17;100.00
9460;BME280;4768;42.664;23.240;2023-04-26T06:21:15;-9710.88;;;10.54;100.00
9460;BME280;4768;42.664;23.240;2023-04-26T06:23:41;-9706.91;;;10.40;100.00
9460;BME280;4768;42.664;23.240;2023-04-26T06:26:08;-9710.31;;;10.52;100.00
9460;BME280;4768;42.664;23.240;2023-04-26T06:28:35;-9709.47;;;10.49;100.00
9460;BME280;4768;42.664;23.240;2023-04-26T06:31:01;-9708.19;;;10.44;100.00
9460;BME280;4768;42.664;23.240;2023-04-26T06:33:30;-9706.75;;;10.39;100.00
9460;BME280;4768;42.664;23.240;2023-04-26T06:35:56;-9709.03;;;10.47;100.00
9460;BME280;4768;42.664;23.240;2023-04-26T06:38:23;-9709.88;;;10.50;100.00
9460;BME280;4768;42.664;23.240;2023-04-26T06:40:50;-9700.94;;;10.19;100.00
9460;BME280;4768;42.664;23.240;2023-04-26T06:43:16;-9698.97;;;10.12;100.00
9460;BME280;4768;42.664;23.240;2023-04-26T06:45:43;-9717.69;;;10.77;100.00
9460;BME280;4768;42.664;23.240;2023-04-26T06:48:10;-9727.91;;;11.13;100.00
9460;BME280;4768;42.664;23.240;2023-04-26T06:50:38;-9717.56;;;10.77;100.00
9460;BME280;4768;42.664;23.240;2023-04-26T06:53:06;-9723.78;;;10.99;100.00
9460;BME280;4768;42.664;23.240;2023-04-26T06:55:32;-9723.09;;;10.96;100.00
9460;BME280;4768;42.664;23.240;2023-04-26T06:57:59;-9732.75;;;11.30;100.00
9460;BME280;4768;42.664;23.240;2023-04-26T07:00:26;-9717.28;;;10.76;100.00
9460;BME280;4768;42.664;23.240;2023-04-26T07:02:54;-9709.59;;;10.49;100.00
9460;BME280;4768;42.664;23.240;2023-04-26T07:05:21;-9718.69;;;10.81;100.00
9460;BME280;4768;42.664;23.240;2023-04-26T07:07:49;-9708.03;;;10.44;100.00
9460;BME280;4768;42.664;23.240;2023-04-26T07:10:16;-9706.47;;;10.38;100.00
9460;BME280;4768;42.664;23.240;2023-04-26T07:12:43;-9708.91;;;10.47;100.00
9460;BME280;4768;42.664;23.240;2023-04-26T07:15:10;-9703.50;;;10.28;100.00
9460;BME280;4768;42.664;23.240;2023-04-26T07:17:37;-9712.59;;;10.60;100.00
9460;BME280;4768;42.664;23.240;2023-04-26T07:20:05;-9717.56;;;10.77;100.00
9460;BME280;4768;42.664;23.240;2023-04-26T07:22:32;-9722.25;;;10.93;100.00
9460;BME280;4768;42.664;23.240;2023-04-26T07:25:00;-9715.00;;;10.68;100.00
9460;BME280;4768;42.664;23.240;2023-04-26T07:27:29;-9713.56;;;10.63;100.00
9460;BME280;4768;42.664;23.240;2023-04-26T07:29:56;-9707.91;;;10.43;100.00
9460;BME280;4768;42.664;23.240;2023-04-26T07:32:23;-9711.72;;;10.57;100.00
9460;BME280;4768;42.664;23.240;2023-04-26T07:34:49;-9708.19;;;10.44;100.00
9460;BME280;4768;42.664;23.240;2023-04-26T07:37:16;-9707.63;;;10.42;100.00
9460;BME280;4768;42.664;23.240;2023-04-26T07:39:43;-9700.25;;;10.16;100.00
9460;BME280;4768;42.664;23.240;2023-04-26T07:42:11;-9712.31;;;10.59;100.00
9460;BME280;4768;42.664;23.240;2023-04-26T07:44:38;-9703.22;;;10.27;100.00
9460;BME280;4768;42.664;23.240;2023-04-26T07:47:10;-9702.38;;;10.24;100.00
9460;BME280;4768;42.664;23.240;2023-04-26T07:49:37;-9707.34;;;10.41;100.00
9460;BME280;4768;42.664;23.240;2023-04-26T07:52:04;-9713.44;;;10.62;100.00
9460;BME280;4768;42.664;23.240;2023-04-26T07:54:31;-9720.38;;;10.87;100.00
9460;BME280;4768;42.664;23.240;2023-04-26T07:56:58;-9727.06;;;11.10;100.00
9460;BME280;4768;42.664;23.240;2023-04-26T07:59:26;-9734.59;;;11.36;100.00
9460;BME280;4768;42.664;23.240;2023-04-26T08:01:53;-9730.91;;;11.23;100.00
9460;BME280;4768;42.664;23.240;2023-04-26T08:04:29;-9714.56;;;10.66;100.00
9460;BME280;4768;42.664;23.240;2023-04-26T08:06:56;-9719.69;;;10.84;100.00
9460;BME280;4768;42.664;23.240;2023-04-26T08:09:23;-9710.59;;;10.53;100.00
9460;BME280;4768;42.664;23.240;2023-04-26T08:11:50;-9723.09;;;10.96;100.00
9460;BME280;4768;42.664;23.240;2023-04-26T08:14:17;-9731.47;;;11.25;100.00
9460;BME280;4768;42.664;23.240;2023-04-26T08:16:45;-9736.00;;;11.41;100.00
9460;BME280;4768;42.664;23.240;2023-04-26T08:19:11;-9735.16;;;11.38;100.00
9460;BME280;4768;42.664;23.240;2023-04-26T08:21:38;-9733.75;;;11.33;100.00
9460;BME280;4768;42.664;23.240;2023-04-26T08:24:05;-9724.94;;;11.03;100.00
9460;BME280;4768;42.664;23.240;2023-04-26T08:26:32;-9719.25;;;10.83;100.00
9460;BME280;4768;42.664;23.240;2023-04-26T08:28:59;-9705.19;;;10.34;100.00
9460;BME280;4768;42.664;23.240;2023-04-26T08:31:26;-9713.44;;;10.62;100.00
9460;BME280;4768;42.664;23.240;2023-04-26T08:33:54;-9716.13;;;10.72;100.00
9460;BME280;4768;42.664;23.240;2023-04-26T08:36:21;-9723.94;;;10.99;100.00
9460;BME280;4768;42.664;23.240;2023-04-26T08:38:47;-9725.78;;;11.06;100.00
9460;BME280;4768;42.664;23.240;2023-04-26T08:41:21;-9733.75;;;11.33;100.00
9460;BME280;4768;42.664;23.240;2023-04-26T08:43:49;-9736.84;;;11.44;100.00
9460;BME280;4768;42.664;23.240;2023-04-26T08:46:18;-9733.16;;;11.31;100.00
9460;BME280;4768;42.664;23.240;2023-04-26T08:48:50;-9716.41;;;10.73;100.00
9460;BME280;4768;42.664;23.240;2023-04-26T08:51:22;-9723.78;;;10.99;100.00
9460;BME280;4768;42.664;23.240;2023-04-26T08:53:49;-9726.22;;;11.07;100.00
9460;BME280;4768;42.664;23.240;2023-04-26T08:56:21;-9741.56;;;11.60;100.00
9460;BME280;4768;42.664;23.240;2023-04-26T08:58:48;-9739.56;;;11.54;100.00
9460;BME280;4768;42.664;23.240;2023-04-26T09:01:17;-9731.75;;;11.26;100.00
9460;BME280;4768;42.664;23.240;2023-04-26T09:03:45;-9725.78;;;11.06;100.00
9460;BME280;4768;42.664;23.240;2023-04-26T09:06:13;-9734.88;;;11.37;100.00
9460;BME280;4768;42.664;23.240;2023-04-26T09:08:42;-9733.44;;;11.32;100.00
9460;BME280;4768;42.664;23.240;2023-04-26T09:11:09;-9732.59;;;11.29;100.00
9460;BME280;4768;42.664;23.240;2023-04-26T09:13:36;-9743.81;;;11.68;100.00
9460;BME280;4768;42.664;23.240;2023-04-26T09:16:03;-9733.75;;;11.33;100.00
9460;BME280;4768;42.664;23.240;2023-04-26T09:18:30;-9739.28;;;11.53;100.00
9460;BME280;4768;42.664;23.240;2023-04-26T09:21:03;-9747.09;;;11.80;100.00
9460;BME280;4768;42.664;23.240;2023-04-26T09:23:30;-9748.50;;;11.85;100.00
9460;BME280;4768;42.664;23.240;2023-04-26T09:26:16;-9744.69;;;11.71;100.00
9460;BME280;4768;42.664;23.240;2023-04-26T09:28:43;-9737.16;;;11.45;100.00
9460;BME280;4768;42.664;23.240;2023-04-26T09:31:10;-9738.56;;;11.50;100.00
9460;BME280;4768;42.664;23.240;2023-04-26T09:33:56;-9759.31;;;12.22;100.00
9460;BME280;4768;42.664;23.240;2023-04-26T09:36:23;-9738.00;;;11.48;100.00
9460;BME280;4768;42.664;23.240;2023-04-26T09:38:50;-9748.50;;;11.85;100.00
9460;BME280;4768;42.664;23.240;2023-04-26T09:41:18;-9746.38;;;11.77;100.00
9460;BME280;4768;42.664;23.240;2023-04-26T09:43:45;-9760.88;;;12.28;100.00
9460;BME280;4768;42.664;23.240;2023-04-26T09:46:21;-9770.81;;;12.62;100.00
9460;BME280;4768;42.664;23.240;2023-04-26T09:48:59;-9755.75;;;12.10;100.00
9460;BME280;4768;42.664;23.240;2023-04-26T09:51:27;-9753.34;;;12.02;100.00
9460;BME280;4768;42.664;23.240;2023-04-26T09:53:54;-9743.53;;;11.67;100.00
9460;BME280;4768;42.664;23.240;2023-04-26T09:56:22;-9756.47;;;12.12;100.00
9460;BME280;4768;42.664;23.240;2023-04-26T09:58:56;-9757.19;;;12.15;100.00
9460;BME280;4768;42.664;23.240;2023-04-26T10:01:26;-9766.41;;;12.47;100.00
9460;BME280;4768;42.664;23.240;2023-04-26T10:03:54;-9756.91;;;12.14;100.00
9460;BME280;4768;42.664;23.240;2023-04-26T10:06:21;-9746.81;;;11.79;100.00
9460;BME280;4768;42.664;23.240;2023-04-26T10:08:48;-9761.59;;;12.30;100.00
9460;BME280;4768;42.664;23.240;2023-04-26T10:11:16;-165.38;;;12.64;100.00
9460;BME280;4768;42.664;23.240;2023-04-26T10:13:45;14287.66;;;12.09;100.00
9460;BME280;4768;42.664;23.240;2023-04-26T10:16:11;14979.75;;;12.32;100.00
9460;BME280;4768;42.664;23.240;2023-04-26T10:18:38;20517.41;;;13.03;100.00
9460;BME280;4768;42.664;23.240;2023-04-26T10:21:08;45846.53;;;12.77;100.00
9460;BME280;4768;42.664;23.240;2023-04-26T10:23:37;44428.91;;;12.36;100.00
9460;BME280;4768;42.664;23.240;2023-04-26T10:26:04;49635.84;;;12.11;100.00
9460;BME280;4768;42.664;23.240;2023-04-26T10:28:54;46516.19;;;12.34;100.00
9460;BME280;4768;42.664;23.240;2023-04-26T10:31:24;56619.72;;;12.23;100.00
9460;BME280;4768;42.664;23.240;2023-04-26T10:34:19;69927.47;;;12.36;100.00
9460;BME280;4768;42.664;23.240;2023-04-26T10:37:13;83995.38;;;12.48;100.00
9460;BME280;4768;42.664;23.240;2023-04-26T10:39:41;93498.91;;;12.36;100.00
9460;BME280;4768;42.664;23.240;2023-04-26T10:42:23;92461.97;;;12.52;100.00
9460;BME280;4768;42.664;23.240;2023-04-26T10:44:52;136503.44;;;12.49;100.00
9460;BME280;4768;42.664;23.240;2023-04-26T10:47:26;161178.28;;;12.19;100.00
9460;BME280;4768;42.664;23.240;2023-04-26T10:50:01;144674.72;;;12.22;100.00
9460;BME280;4768;42.664;23.240;2023-04-26T10:52:30;170228.34;;;12.37;100.00
9460;BME280;4768;42.664;23.240;2023-04-26T10:54:57;170259.06;;;12.49;100.00
9460;BME280;4768;42.664;23.240;2023-04-26T10:57:45;170333.78;;;12.76;100.00
9460;BME280;4768;42.664;23.240;2023-04-26T11:00:27;170284.38;;;12.58;100.00
9460;BME280;4768;42.664;23.240;2023-04-26T11:03:12;170255.06;;;12.47;100.00
9460;BME280;4768;42.664;23.240;2023-04-26T11:05:53;170195.00;;;12.25;100.00
9460;BME280;4768;42.664;23.240;2023-04-26T11:08:23;170192.34;;;12.24;100.00
9460;BME280;4768;42.664;23.240;2023-04-26T11:10:56;170281.75;;;12.57;100.00
9460;BME280;4768;42.664;23.240;2023-04-26T11:13:23;170252.38;;;12.46;100.00
9460;BME280;4768;42.664;23.240;2023-04-26T11:15:59;170102.97;;;11.91;100.00
9460;BME280;4768;42.664;23.240;2023-04-26T11:18:27;170163.00;;;12.13;100.00
9460;BME280;4768;42.664;23.240;2023-04-26T11:20:54;170257.75;;;12.48;100.00
9460;BME280;4768;42.664;23.240;2023-04-26T11:23:22;170255.06;;;12.47;100.00
9460;BME280;4768;42.664;23.240;2023-04-26T11:25:48;170391.22;;;12.98;100.00
9460;BME280;4768;42.664;23.240;2023-04-26T11:28:17;170439.25;;;13.15;100.00
9460;BME280;4768;42.664;23.240;2023-04-26T11:30:44;170465.97;;;13.25;100.00
9460;BME280;4768;42.664;23.240;2023-04-26T11:33:17;170503.38;;;13.39;100.00
9460;BME280;4768;42.664;23.240;2023-04-26T11:35:45;170373.88;;;12.91;100.00
9460;BME280;4768;42.664;23.240;2023-04-26T11:38:12;170387.22;;;12.96;100.00
9460;BME280;4768;42.664;23.240;2023-04-26T11:40:39;170315.09;;;12.69;100.00
9460;BME280;4768;42.664;23.240;2023-04-26T11:43:07;170276.38;;;12.55;100.00
9460;BME280;4768;42.664;23.240;2023-04-26T11:45:36;170200.34;;;12.27;100.00
9460;BME280;4768;42.664;23.240;2023-04-26T11:48:05;170245.72;;;12.44;100.00
9460;BME280;4768;42.664;23.240;2023-04-26T11:50:35;170249.72;;;12.45;100.00
9460;BME280;4768;42.664;23.240;2023-04-26T11:53:04;170237.72;;;12.41;100.00
9460;BME280;4768;42.664;23.240;2023-04-26T11:55:32;170257.75;;;12.48;100.00
9460;BME280;4768;42.664;23.240;2023-04-26T11:58:00;170395.22;;;12.99;100.00
9460;BME280;4768;42.664;23.240;2023-04-26T12:00:28;170391.22;;;12.98;100.00
9460;BME280;4768;42.664;23.240;2023-04-26T12:02:54;170475.28;;;13.29;100.00
9460;BME280;4768;42.664;23.240;2023-04-26T12:05:23;170498.00;;;13.37;100.00
9460;BME280;4768;42.664;23.240;2023-04-26T12:07:53;170376.56;;;12.92;100.00
9460;BME280;4768;42.664;23.240;2023-04-26T12:10:23;170279.06;;;12.56;100.00
9460;BME280;4768;42.664;23.240;2023-04-26T12:12:52;170348.50;;;12.82;100.00
9460;BME280;4768;42.664;23.240;2023-04-26T12:15:22;170385.88;;;12.96;100.00
9460;BME280;4768;42.664;23.240;2023-04-26T12:17:53;170375.19;;;12.92;100.00
9460;BME280;4768;42.664;23.240;2023-04-26T12:20:31;170265.75;;;12.51;100.00
9460;BME280;4768;42.664;23.240;2023-04-26T12:23:01;170287.06;;;12.59;100.00
9460;BME280;4768;42.664;23.240;2023-04-26T12:25:28;170311.09;;;12.68;100.00
9460;BME280;4768;42.664;23.240;2023-04-26T12:27:56;170384.56;;;12.95;100.00
9460;BME280;4768;42.664;23.240;2023-04-26T12:30:23;170404.59;;;13.03;100.00
9460;BME280;4768;42.664;23.240;2023-04-26T12:32:50;170379.19;;;12.93;100.00
9460;BME280;4768;42.664;23.240;2023-04-26T12:35:17;170377.88;;;12.93;100.00
9460;BME280;4768;42.664;23.240;2023-04-26T12:37:44;170480.66;;;13.31;100.00
9460;BME280;4768;42.664;23.240;2023-04-26T12:40:13;170319.09;;;12.71;100.00
9460;BME280;4768;42.664;23.240;2023-04-26T12:42:41;170377.88;;;12.93;100.00
9460;BME280;4768;42.664;23.240;2023-04-26T12:45:08;170411.22;;;13.05;100.00
9460;BME280;4768;42.664;23.240;2023-04-26T12:47:35;170468.66;;;13.26;100.00
9460;BME280;4768;42.664;23.240;2023-04-26T12:50:02;170420.59;;;13.08;100.00
9460;BME280;4768;42.664;23.240;2023-04-26T12:52:29;170301.75;;;12.64;100.00
9460;BME280;4768;42.664;23.240;2023-04-26T12:54:56;170211.03;;;12.31;100.00
9460;BME280;4768;42.664;23.240;2023-04-26T12:57:24;170221.72;;;12.35;100.00
9460;BME280;4768;42.664;23.240;2023-04-26T12:59:51;170276.38;;;12.55;100.00
9460;BME280;4768;42.664;23.240;2023-04-26T13:02:18;170287.06;;;12.59;100.00
9460;BME280;4768;42.664;23.240;2023-04-26T13:04:45;170299.06;;;12.63;100.00
9460;BME280;4768;42.664;23.240;2023-04-26T13:07:13;170393.91;;;12.99;100.00